sensor_id;sensor_type;location;lat;lon;timestamp;P1;durP1;ratioP1;P2;durP2;ratioP2
15354;SDS011;7777;52.254;9.618;2023-03-30T00:00:06;7.67;;;3.77;;
15354;SDS011;7777;52.254;9.618;2023-03-30T00:02:42;7.13;;;4.20;;
15354;SDS011;7777;52.254;9.618;2023-03-30T00:05:12;7.60;;;3.87;;
15354;SDS011;7777;52.254;9.618;2023-03-30T00:07:39;13.43;;;3.77;;
15354;SDS011;7777;52.254;9.618;2023-03-30T00:10:15;6.43;;;3.50;;
15354;SDS011;7777;52.254;9.618;2023-03-30T00:12:43;8.10;;;3.80;;
15354;SDS011;7777;52.254;9.618;2023-03-30T00:15:18;8.03;;;3.83;;
15354;SDS011;7777;52.254;9.618;2023-03-30T00:17:46;5.23;;;3.33;;
15354;SDS011;7777;52.254;9.618;2023-03-30T00:20:13;6.20;;;3.90;;
15354;SDS011;7777;52.254;9.618;2023-03-30T00:22:40;8.20;;;3.50;;
15354;SDS011;7777;52.254;9.618;2023-03-30T00:25:07;6.10;;;3.50;;
15354;SDS011;7777;52.254;9.618;2023-03-30T00:27:37;7.03;;;4.37;;
15354;SDS011;7777;52.254;9.618;2023-03-30T00:30:05;7.53;;;3.83;;
15354;SDS011;7777;52.254;9.618;2023-03-30T00:32:35;6.13;;;3.60;;
15354;SDS011;7777;52.254;9.618;2023-03-30T00:35:01;6.97;;;3.90;;
15354;SDS011;7777;52.254;9.618;2023-03-30T00:37:27;8.20;;;4.40;;
15354;SDS011;7777;52.254;9.618;2023-03-30T00:39:54;6.87;;;3.80;;
15354;SDS011;7777;52.254;9.618;2023-03-30T00:42:20;7.10;;;3.97;;
15354;SDS011;7777;52.254;9.618;2023-03-30T00:50:26;5.03;;;3.73;;
15354;SDS011;7777;52.254;9.618;2023-03-30T00:52:59;5.47;;;3.00;;
15354;SDS011;7777;52.254;9.618;2023-03-30T00:55:31;5.10;;;3.60;;
15354;SDS011;7777;52.254;9.618;2023-03-30T00:57:58;4.73;;;3.30;;
15354;SDS011;7777;52.254;9.618;2023-03-30T01:00:25;5.23;;;3.37;;
15354;SDS011;7777;52.254;9.618;2023-03-30T01:02:53;6.23;;;3.47;;
15354;SDS011;7777;52.254;9.618;2023-03-30T01:05:23;6.57;;;3.77;;
15354;SDS011;7777;52.254;9.618;2023-03-30T01:07:50;4.83;;;3.20;;
15354;SDS011;7777;52.254;9.618;2023-03-30T01:10:16;4.73;;;3.30;;
15354;SDS011;7777;52.254;9.618;2023-03-30T01:12:43;7.97;;;3.67;;
15354;SDS011;7777;52.254;9.618;2023-03-30T01:15:09;7.53;;;3.27;;
15354;SDS011;7777;52.254;9.618;2023-03-30T01:17:57;7.63;;;3.60;;
15354;SDS011;7777;52.254;9.618;2023-03-30T01:45:33;5.93;;;3.50;;
15354;SDS011;7777;52.254;9.618;2023-03-30T01:48:09;5.60;;;3.50;;
15354;SDS011;7777;52.254;9.618;2023-03-30T01:50:59;5.90;;;3.57;;
15354;SDS011;7777;52.254;9.618;2023-03-30T01:56:07;5.90;;;3.00;;
15354;SDS011;7777;52.254;9.618;2023-03-30T01:58:57;6.20;;;3.30;;
15354;SDS011;7777;52.254;9.618;2023-03-30T02:01:52;5.70;;;2.90;;
15354;SDS011;7777;52.254;9.618;2023-03-30T02:04:24;9.57;;;3.87;;
15354;SDS011;7777;52.254;9.618;2023-03-30T02:07:03;8.43;;;4.00;;
15354;SDS011;7777;52.254;9.618;2023-03-30T02:09:34;6.53;;;3.13;;
15354;SDS011;7777;52.254;9.618;2023-03-30T02:12:03;5.07;;;3.37;;
15354;SDS011;7777;52.254;9.618;2023-03-30T02:14:32;7.43;;;3.80;;
15354;SDS011;7777;52.254;9.618;2023-03-30T02:17:22;9.23;;;3.77;;
15354;SDS011;7777;52.254;9.618;2023-03-30T02:19:48;6.07;;;3.40;;
15354;SDS011;7777;52.254;9.618;2023-03-30T02:22:16;5.73;;;2.90;;
15354;SDS011;7777;52.254;9.618;2023-03-30T02:24:44;3.77;;;2.23;;
15354;SDS011;7777;52.254;9.618;2023-03-30T02:27:13;6.80;;;3.50;;
15354;SDS011;7777;52.254;9.618;2023-03-30T02:29:41;9.50;;;2.67;;
15354;SDS011;7777;52.254;9.618;2023-03-30T02:32:20;9.90;;;3.23;;
15354;SDS011;7777;52.254;9.618;2023-03-30T02:40:32;8.37;;;3.27;;
15354;SDS011;7777;52.254;9.618;2023-03-30T02:43:39;4.83;;;2.50;;
15354;SDS011;7777;52.254;9.618;2023-03-30T02:49:54;5.03;;;2.50;;
15354;SDS011;7777;52.254;9.618;2023-03-30T02:55:38;5.47;;;2.97;;
15354;SDS011;7777;52.254;9.618;2023-03-30T03:01:16;5.90;;;2.70;;
15354;SDS011;7777;52.254;9.618;2023-03-30T03:04:00;4.40;;;2.50;;
15354;SDS011;7777;52.254;9.618;2023-03-30T03:06:28;11.73;;;2.57;;
15354;SDS011;7777;52.254;9.618;2023-03-30T03:08:56;3.60;;;2.47;;
15354;SDS011;7777;52.254;9.618;2023-03-30T03:11:23;5.47;;;2.23;;
15354;SDS011;7777;52.254;9.618;2023-03-30T03:13:49;13.13;;;3.07;;
15354;SDS011;7777;52.254;9.618;2023-03-30T03:16:16;5.40;;;2.23;;
15354;SDS011;7777;52.254;9.618;2023-03-30T03:18:42;7.97;;;2.80;;
15354;SDS011;7777;52.254;9.618;2023-03-30T03:21:09;5.20;;;2.60;;
15354;SDS011;7777;52.254;9.618;2023-03-30T03:23:37;4.43;;;2.63;;
15354;SDS011;7777;52.254;9.618;2023-03-30T03:26:04;10.83;;;2.97;;
15354;SDS011;7777;52.254;9.618;2023-03-30T03:28:31;10.47;;;3.07;;
15354;SDS011;7777;52.254;9.618;2023-03-30T03:30:58;9.67;;;3.20;;
15354;SDS011;7777;52.254;9.618;2023-03-30T03:33:24;6.60;;;2.77;;
15354;SDS011;7777;52.254;9.618;2023-03-30T03:35:51;6.50;;;2.87;;
15354;SDS011;7777;52.254;9.618;2023-03-30T03:38:23;6.57;;;2.60;;
15354;SDS011;7777;52.254;9.618;2023-03-30T03:40:54;5.20;;;3.00;;
15354;SDS011;7777;52.254;9.618;2023-03-30T03:43:22;4.63;;;2.53;;
15354;SDS011;7777;52.254;9.618;2023-03-30T03:45:49;7.37;;;2.93;;
15354;SDS011;7777;52.254;9.618;2023-03-30T03:48:17;8.47;;;3.13;;
15354;SDS011;7777;52.254;9.618;2023-03-30T03:50:49;4.27;;;2.73;;
15354;SDS011;7777;52.254;9.618;2023-03-30T03:53:24;6.87;;;2.83;;
15354;SDS011;7777;52.254;9.618;2023-03-30T03:55:51;6.63;;;3.03;;
15354;SDS011;7777;52.254;9.618;2023-03-30T03:58:18;10.87;;;3.33;;
15354;SDS011;7777;52.254;9.618;2023-03-30T04:00:45;4.50;;;2.90;;
15354;SDS011;7777;52.254;9.618;2023-03-30T04:03:11;10.33;;;2.83;;
15354;SDS011;7777;52.254;9.618;2023-03-30T04:05:37;7.23;;;3.20;;
15354;SDS011;7777;52.254;9.618;2023-03-30T04:08:05;5.27;;;2.67;;
15354;SDS011;7777;52.254;9.618;2023-03-30T04:10:34;5.67;;;2.93;;
15354;SDS011;7777;52.254;9.618;2023-03-30T04:13:02;4.13;;;2.90;;
15354;SDS011;7777;52.254;9.618;2023-03-30T04:15:28;6.50;;;2.93;;
15354;SDS011;7777;52.254;9.618;2023-03-30T04:17:54;4.30;;;3.00;;
15354;SDS011;7777;52.254;9.618;2023-03-30T04:20:22;6.67;;;3.07;;
15354;SDS011;7777;52.254;9.618;2023-03-30T04:22:50;9.10;;;3.03;;
15354;SDS011;7777;52.254;9.618;2023-03-30T04:25:17;4.40;;;2.53;;
15354;SDS011;7777;52.254;9.618;2023-03-30T04:27:49;6.70;;;3.27;;
15354;SDS011;7777;52.254;9.618;2023-03-30T04:30:20;7.27;;;3.20;;
15354;SDS011;7777;52.254;9.618;2023-03-30T04:32:48;6.80;;;3.07;;
15354;SDS011;7777;52.254;9.618;2023-03-30T04:35:41;8.53;;;2.73;;
15354;SDS011;7777;52.254;9.618;2023-03-30T04:38:07;5.10;;;2.43;;
15354;SDS011;7777;52.254;9.618;2023-03-30T04:40:33;6.27;;;2.63;;
15354;SDS011;7777;52.254;9.618;2023-03-30T04:42:59;6.43;;;2.53;;
15354;SDS011;7777;52.254;9.618;2023-03-30T04:45:30;6.67;;;2.60;;
15354;SDS011;7777;52.254;9.618;2023-03-30T04:47:56;7.17;;;2.83;;
15354;SDS011;7777;52.254;9.618;2023-03-30T04:50:22;3.17;;;2.17;;
15354;SDS011;7777;52.254;9.618;2023-03-30T04:52:47;7.23;;;2.80;;
15354;SDS011;7777;52.254;9.618;2023-03-30T04:55:13;6.40;;;2.73;;
15354;SDS011;7777;52.254;9.618;2023-03-30T04:57:39;7.27;;;2.13;;
15354;SDS011;7777;52.254;9.618;2023-03-30T05:00:05;8.13;;;2.60;;
15354;SDS011;7777;52.254;9.618;2023-03-30T05:02:33;4.53;;;2.47;;
15354;SDS011;7777;52.254;9.618;2023-03-30T05:04:59;6.60;;;2.57;;
15354;SDS011;7777;52.254;9.618;2023-03-30T05:07:25;7.93;;;3.03;;
15354;SDS011;7777;52.254;9.618;2023-03-30T05:09:51;6.63;;;1.97;;
15354;SDS011;7777;52.254;9.618;2023-03-30T05:12:16;4.63;;;2.27;;
15354;SDS011;7777;52.254;9.618;2023-03-30T05:14:42;5.50;;;2.80;;
15354;SDS011;7777;52.254;9.618;2023-03-30T05:17:08;6.87;;;2.30;;
15354;SDS011;7777;52.254;9.618;2023-03-30T05:19:34;4.63;;;2.17;;
15354;SDS011;7777;52.254;9.618;2023-03-30T05:22:00;4.63;;;2.60;;
15354;SDS011;7777;52.254;9.618;2023-03-30T05:24:26;5.57;;;2.40;;
15354;SDS011;7777;52.254;9.618;2023-03-30T05:26:52;6.93;;;2.63;;
15354;SDS011;7777;52.254;9.618;2023-03-30T05:29:17;6.10;;;2.37;;
15354;SDS011;7777;52.254;9.618;2023-03-30T05:31:43;5.20;;;2.00;;
15354;SDS011;7777;52.254;9.618;2023-03-30T05:34:09;6.87;;;2.63;;
15354;SDS011;7777;52.254;9.618;2023-03-30T05:36:35;4.13;;;1.90;;
15354;SDS011;7777;52.254;9.618;2023-03-30T05:39:01;10.03;;;2.57;;
15354;SDS011;7777;52.254;9.618;2023-03-30T05:41:29;6.23;;;2.63;;
15354;SDS011;7777;52.254;9.618;2023-03-30T05:43:55;4.43;;;2.03;;
15354;SDS011;7777;52.254;9.618;2023-03-30T05:46:21;6.17;;;2.07;;
15354;SDS011;7777;52.254;9.618;2023-03-30T05:48:48;3.57;;;2.00;;
15354;SDS011;7777;52.254;9.618;2023-03-30T05:51:14;7.47;;;2.00;;
15354;SDS011;7777;52.254;9.618;2023-03-30T05:53:40;9.90;;;2.50;;
15354;SDS011;7777;52.254;9.618;2023-03-30T05:56:06;4.33;;;2.33;;
15354;SDS011;7777;52.254;9.618;2023-03-30T05:58:33;5.80;;;1.83;;
15354;SDS011;7777;52.254;9.618;2023-03-30T06:01:02;7.03;;;2.67;;
15354;SDS011;7777;52.254;9.618;2023-03-30T06:03:29;7.07;;;2.83;;
15354;SDS011;7777;52.254;9.618;2023-03-30T06:05:55;5.80;;;2.43;;
15354;SDS011;7777;52.254;9.618;2023-03-30T06:08:22;4.33;;;1.97;;
15354;SDS011;7777;52.254;9.618;2023-03-30T06:10:52;8.07;;;2.40;;
15354;SDS011;7777;52.254;9.618;2023-03-30T06:13:19;4.07;;;2.00;;
15354;SDS011;7777;52.254;9.618;2023-03-30T06:15:45;7.10;;;2.27;;
15354;SDS011;7777;52.254;9.618;2023-03-30T06:18:11;8.87;;;2.00;;
15354;SDS011;7777;52.254;9.618;2023-03-30T06:20:37;4.73;;;2.07;;
15354;SDS011;7777;52.254;9.618;2023-03-30T06:23:03;6.77;;;2.20;;
15354;SDS011;7777;52.254;9.618;2023-03-30T06:25:29;6.53;;;2.50;;
15354;SDS011;7777;52.254;9.618;2023-03-30T06:27:54;7.73;;;2.70;;
15354;SDS011;7777;52.254;9.618;2023-03-30T06:30:21;7.37;;;2.40;;
15354;SDS011;7777;52.254;9.618;2023-03-30T06:32:48;5.80;;;2.20;;
15354;SDS011;7777;52.254;9.618;2023-03-30T06:35:13;6.67;;;2.40;;
15354;SDS011;7777;52.254;9.618;2023-03-30T06:37:40;9.50;;;2.47;;
15354;SDS011;7777;52.254;9.618;2023-03-30T06:40:06;4.80;;;2.07;;
15354;SDS011;7777;52.254;9.618;2023-03-30T06:42:39;7.13;;;2.20;;
15354;SDS011;7777;52.254;9.618;2023-03-30T06:45:08;6.03;;;1.93;;
15354;SDS011;7777;52.254;9.618;2023-03-30T06:47:35;8.23;;;2.87;;
15354;SDS011;7777;52.254;9.618;2023-03-30T06:50:01;4.77;;;2.00;;
15354;SDS011;7777;52.254;9.618;2023-03-30T06:52:28;3.03;;;1.80;;
15354;SDS011;7777;52.254;9.618;2023-03-30T06:54:54;10.40;;;2.70;;
15354;SDS011;7777;52.254;9.618;2023-03-30T06:57:19;9.77;;;2.87;;
15354;SDS011;7777;52.254;9.618;2023-03-30T06:59:45;8.67;;;2.37;;
15354;SDS011;7777;52.254;9.618;2023-03-30T07:02:12;5.40;;;1.70;;
15354;SDS011;7777;52.254;9.618;2023-03-30T07:04:38;7.00;;;2.37;;
15354;SDS011;7777;52.254;9.618;2023-03-30T07:07:04;4.90;;;1.80;;
15354;SDS011;7777;52.254;9.618;2023-03-30T07:09:30;6.67;;;1.93;;
15354;SDS011;7777;52.254;9.618;2023-03-30T07:11:56;4.47;;;2.00;;
15354;SDS011;7777;52.254;9.618;2023-03-30T07:14:22;5.23;;;1.97;;
15354;SDS011;7777;52.254;9.618;2023-03-30T07:16:47;6.73;;;2.20;;
15354;SDS011;7777;52.254;9.618;2023-03-30T07:19:13;3.13;;;1.80;;
15354;SDS011;7777;52.254;9.618;2023-03-30T07:21:40;6.07;;;2.43;;
15354;SDS011;7777;52.254;9.618;2023-03-30T07:24:06;8.90;;;2.30;;
15354;SDS011;7777;52.254;9.618;2023-03-30T07:26:32;7.33;;;1.87;;
15354;SDS011;7777;52.254;9.618;2023-03-30T07:28:58;20.47;;;2.10;;
15354;SDS011;7777;52.254;9.618;2023-03-30T07:31:24;8.50;;;2.00;;
15354;SDS011;7777;52.254;9.618;2023-03-30T07:33:50;3.37;;;1.40;;
15354;SDS011;7777;52.254;9.618;2023-03-30T07:36:16;7.77;;;1.77;;
15354;SDS011;7777;52.254;9.618;2023-03-30T07:38:42;7.80;;;2.23;;
15354;SDS011;7777;52.254;9.618;2023-03-30T07:41:09;7.60;;;2.40;;
15354;SDS011;7777;52.254;9.618;2023-03-30T07:43:37;6.17;;;2.13;;
15354;SDS011;7777;52.254;9.618;2023-03-30T07:46:09;4.17;;;1.80;;
15354;SDS011;7777;52.254;9.618;2023-03-30T07:48:36;5.00;;;2.00;;
15354;SDS011;7777;52.254;9.618;2023-03-30T07:51:05;4.60;;;1.50;;
15354;SDS011;7777;52.254;9.618;2023-03-30T07:53:36;6.27;;;1.93;;
15354;SDS011;7777;52.254;9.618;2023-03-30T07:56:02;3.33;;;1.73;;
15354;SDS011;7777;52.254;9.618;2023-03-30T07:58:29;7.23;;;1.93;;
15354;SDS011;7777;52.254;9.618;2023-03-30T08:00:56;6.57;;;1.80;;
15354;SDS011;7777;52.254;9.618;2023-03-30T08:03:21;4.97;;;1.97;;
15354;SDS011;7777;52.254;9.618;2023-03-30T08:05:54;5.20;;;2.27;;
15354;SDS011;7777;52.254;9.618;2023-03-30T08:08:24;9.90;;;2.10;;
15354;SDS011;7777;52.254;9.618;2023-03-30T08:10:51;7.93;;;2.20;;
15354;SDS011;7777;52.254;9.618;2023-03-30T08:13:17;11.33;;;2.13;;
15354;SDS011;7777;52.254;9.618;2023-03-30T08:15:44;7.53;;;2.23;;
15354;SDS011;7777;52.254;9.618;2023-03-30T08:18:11;7.03;;;2.03;;
15354;SDS011;7777;52.254;9.618;2023-03-30T08:20:38;7.67;;;1.87;;
15354;SDS011;7777;52.254;9.618;2023-03-30T08:23:06;8.63;;;2.23;;
15354;SDS011;7777;52.254;9.618;2023-03-30T08:25:36;6.03;;;2.20;;
15354;SDS011;7777;52.254;9.618;2023-03-30T08:28:02;9.43;;;2.33;;
15354;SDS011;7777;52.254;9.618;2023-03-30T08:30:29;6.33;;;2.30;;
15354;SDS011;7777;52.254;9.618;2023-03-30T08:32:56;7.77;;;2.10;;
15354;SDS011;7777;52.254;9.618;2023-03-30T08:35:22;9.23;;;2.53;;
15354;SDS011;7777;52.254;9.618;2023-03-30T08:37:48;8.70;;;2.13;;
15354;SDS011;7777;52.254;9.618;2023-03-30T08:40:18;5.60;;;2.00;;
15354;SDS011;7777;52.254;9.618;2023-03-30T08:45:38;7.83;;;2.60;;
15354;SDS011;7777;52.254;9.618;2023-03-30T08:48:27;5.87;;;2.47;;
15354;SDS011;7777;52.254;9.618;2023-03-30T08:50:56;8.17;;;3.10;;
15354;SDS011;7777;52.254;9.618;2023-03-30T08:54:05;6.57;;;2.30;;
15354;SDS011;7777;52.254;9.618;2023-03-30T08:56:39;7.20;;;2.10;;
15354;SDS011;7777;52.254;9.618;2023-03-30T08:59:27;5.37;;;2.47;;
15354;SDS011;7777;52.254;9.618;2023-03-30T09:02:13;8.43;;;2.40;;
15354;SDS011;7777;52.254;9.618;2023-03-30T09:07:41;7.93;;;2.10;;
15354;SDS011;7777;52.254;9.618;2023-03-30T09:10:35;5.93;;;2.50;;
15354;SDS011;7777;52.254;9.618;2023-03-30T09:13:05;4.57;;;2.00;;
15354;SDS011;7777;52.254;9.618;2023-03-30T09:20:47;4.20;;;1.70;;
15354;SDS011;7777;52.254;9.618;2023-03-30T09:23:16;5.57;;;1.80;;
15354;SDS011;7777;52.254;9.618;2023-03-30T09:28:18;10.83;;;2.20;;
15354;SDS011;7777;52.254;9.618;2023-03-30T09:31:16;4.17;;;1.83;;
15354;SDS011;7777;52.254;9.618;2023-03-30T09:34:07;4.80;;;1.60;;
15354;SDS011;7777;52.254;9.618;2023-03-30T09:36:55;5.50;;;1.83;;
15354;SDS011;7777;52.254;9.618;2023-03-30T09:39:27;3.53;;;1.53;;
15354;SDS011;7777;52.254;9.618;2023-03-30T09:41:58;9.33;;;1.73;;
15354;SDS011;7777;52.254;9.618;2023-03-30T09:44:55;5.13;;;1.93;;
15354;SDS011;7777;52.254;9.618;2023-03-30T09:47:47;5.83;;;1.70;;
15354;SDS011;7777;52.254;9.618;2023-03-30T09:50:16;8.07;;;2.10;;
15354;SDS011;7777;52.254;9.618;2023-03-30T09:52:53;5.00;;;2.00;;
15354;SDS011;7777;52.254;9.618;2023-03-30T09:58:12;3.93;;;1.87;;
15354;SDS011;7777;52.254;9.618;2023-03-30T10:00:42;6.73;;;2.30;;
15354;SDS011;7777;52.254;9.618;2023-03-30T10:03:17;5.63;;;2.77;;
15354;SDS011;7777;52.254;9.618;2023-03-30T10:05:58;4.27;;;1.70;;
15354;SDS011;7777;52.254;9.618;2023-03-30T10:08:50;6.67;;;1.97;;
15354;SDS011;7777;52.254;9.618;2023-03-30T10:11:28;5.00;;;1.93;;
15354;SDS011;7777;52.254;9.618;2023-03-30T10:14:03;3.60;;;1.60;;
15354;SDS011;7777;52.254;9.618;2023-03-30T10:16:31;5.57;;;1.80;;
15354;SDS011;7777;52.254;9.618;2023-03-30T10:18:58;4.67;;;2.00;;
15354;SDS011;7777;52.254;9.618;2023-03-30T10:21:30;5.40;;;1.70;;
15354;SDS011;7777;52.254;9.618;2023-03-30T10:24:21;6.70;;;2.27;;
15354;SDS011;7777;52.254;9.618;2023-03-30T10:26:56;4.73;;;2.00;;
15354;SDS011;7777;52.254;9.618;2023-03-30T10:29:33;4.67;;;2.00;;
15354;SDS011;7777;52.254;9.618;2023-03-30T10:32:01;4.63;;;1.93;;
15354;SDS011;7777;52.254;9.618;2023-03-30T10:34:36;6.13;;;2.03;;
15354;SDS011;7777;52.254;9.618;2023-03-30T10:37:11;4.93;;;1.83;;
15354;SDS011;7777;52.254;9.618;2023-03-30T10:40:00;6.33;;;1.70;;
15354;SDS011;7777;52.254;9.618;2023-03-30T10:42:35;9.53;;;2.60;;
15354;SDS011;7777;52.254;9.618;2023-03-30T10:45:02;6.23;;;2.00;;
15354;SDS011;7777;52.254;9.618;2023-03-30T11:04:36;2.87;;;1.00;;
15354;SDS011;7777;52.254;9.618;2023-03-30T11:07:32;3.83;;;1.33;;
15354;SDS011;7777;52.254;9.618;2023-03-30T11:10:10;6.57;;;1.60;;
15354;SDS011;7777;52.254;9.618;2023-03-30T11:12:45;7.53;;;1.60;;
15354;SDS011;7777;52.254;9.618;2023-03-30T11:18:31;5.83;;;1.73;;
15354;SDS011;7777;52.254;9.618;2023-03-30T11:23:53;7.70;;;2.07;;
15354;SDS011;7777;52.254;9.618;2023-03-30T11:41:15;7.33;;;1.97;;
15354;SDS011;7777;52.254;9.618;2023-03-30T11:43:47;4.43;;;1.70;;
15354;SDS011;7777;52.254;9.618;2023-03-30T11:46:27;5.33;;;1.50;;
15354;SDS011;7777;52.254;9.618;2023-03-30T11:58:11;6.83;;;1.70;;
15354;SDS011;7777;52.254;9.618;2023-03-30T12:01:02;11.03;;;2.17;;
15354;SDS011;7777;52.254;9.618;2023-03-30T12:03:52;4.80;;;2.10;;
15354;SDS011;7777;52.254;9.618;2023-03-30T12:06:31;5.17;;;1.70;;
15354;SDS011;7777;52.254;9.618;2023-03-30T12:12:02;7.87;;;2.10;;
15354;SDS011;7777;52.254;9.618;2023-03-30T12:14:41;9.13;;;1.90;;
15354;SDS011;7777;52.254;9.618;2023-03-30T12:17:24;6.23;;;1.67;;
15354;SDS011;7777;52.254;9.618;2023-03-30T12:31:11;6.97;;;1.70;;
15354;SDS011;7777;52.254;9.618;2023-03-30T12:33:45;6.53;;;1.73;;
15354;SDS011;7777;52.254;9.618;2023-03-30T12:36:23;6.30;;;2.07;;
15354;SDS011;7777;52.254;9.618;2023-03-30T12:39:03;6.43;;;1.37;;
15354;SDS011;7777;52.254;9.618;2023-03-30T12:41:39;9.07;;;1.87;;
15354;SDS011;7777;52.254;9.618;2023-03-30T12:47:05;5.20;;;1.03;;
15354;SDS011;7777;52.254;9.618;2023-03-30T13:05:02;7.10;;;1.53;;
15354;SDS011;7777;52.254;9.618;2023-03-30T13:07:51;6.53;;;1.30;;
15354;SDS011;7777;52.254;9.618;2023-03-30T13:12:57;3.53;;;1.10;;
15354;SDS011;7777;52.254;9.618;2023-03-30T13:18:52;3.97;;;1.20;;
15354;SDS011;7777;52.254;9.618;2023-03-30T13:21:18;3.13;;;0.80;;
15354;SDS011;7777;52.254;9.618;2023-03-30T13:23:59;4.30;;;1.40;;
15354;SDS011;7777;52.254;9.618;2023-03-30T13:26:43;5.00;;;1.27;;
15354;SDS011;7777;52.254;9.618;2023-03-30T13:29:09;4.60;;;1.20;;
15354;SDS011;7777;52.254;9.618;2023-03-30T13:34:20;4.83;;;1.33;;
15354;SDS011;7777;52.254;9.618;2023-03-30T13:37:10;6.17;;;1.87;;
15354;SDS011;7777;52.254;9.618;2023-03-30T13:42:48;6.47;;;2.07;;
15354;SDS011;7777;52.254;9.618;2023-03-30T13:48:06;5.27;;;1.80;;
15354;SDS011;7777;52.254;9.618;2023-03-30T13:50:43;10.13;;;2.10;;
15354;SDS011;7777;52.254;9.618;2023-03-30T13:53:25;5.87;;;1.60;;
15354;SDS011;7777;52.254;9.618;2023-03-30T13:55:55;4.40;;;1.70;;
15354;SDS011;7777;52.254;9.618;2023-03-30T13:58:29;6.80;;;1.87;;
15354;SDS011;7777;52.254;9.618;2023-03-30T14:01:05;5.90;;;1.57;;
15354;SDS011;7777;52.254;9.618;2023-03-30T14:03:42;9.50;;;1.73;;
15354;SDS011;7777;52.254;9.618;2023-03-30T14:06:19;4.47;;;1.90;;
15354;SDS011;7777;52.254;9.618;2023-03-30T14:14:03;6.17;;;1.60;;
15354;SDS011;7777;52.254;9.618;2023-03-30T14:16:31;6.07;;;1.40;;
15354;SDS011;7777;52.254;9.618;2023-03-30T14:19:11;4.43;;;1.70;;
15354;SDS011;7777;52.254;9.618;2023-03-30T14:22:01;9.87;;;2.17;;
15354;SDS011;7777;52.254;9.618;2023-03-30T14:24:54;5.27;;;1.70;;
15354;SDS011;7777;52.254;9.618;2023-03-30T14:27:35;5.63;;;2.23;;
15354;SDS011;7777;52.254;9.618;2023-03-30T14:30:10;6.43;;;1.87;;
15354;SDS011;7777;52.254;9.618;2023-03-30T14:32:45;7.13;;;1.70;;
15354;SDS011;7777;52.254;9.618;2023-03-30T14:35:15;7.63;;;2.40;;
15354;SDS011;7777;52.254;9.618;2023-03-30T14:37:45;6.73;;;2.00;;
15354;SDS011;7777;52.254;9.618;2023-03-30T14:40:14;8.57;;;2.10;;
15354;SDS011;7777;52.254;9.618;2023-03-30T14:42:43;8.27;;;1.90;;
15354;SDS011;7777;52.254;9.618;2023-03-30T14:45:14;11.23;;;2.73;;
15354;SDS011;7777;52.254;9.618;2023-03-30T14:47:42;7.63;;;2.03;;
15354;SDS011;7777;52.254;9.618;2023-03-30T14:50:11;9.67;;;2.60;;
15354;SDS011;7777;52.254;9.618;2023-03-30T14:52:40;7.87;;;2.07;;
15354;SDS011;7777;52.254;9.618;2023-03-30T14:55:11;6.57;;;1.93;;
15354;SDS011;7777;52.254;9.618;2023-03-30T14:57:42;6.17;;;1.93;;
15354;SDS011;7777;52.254;9.618;2023-03-30T15:00:12;5.13;;;2.20;;
15354;SDS011;7777;52.254;9.618;2023-03-30T15:02:49;9.20;;;2.60;;
15354;SDS011;7777;52.254;9.618;2023-03-30T15:05:18;9.33;;;2.30;;
15354;SDS011;7777;52.254;9.618;2023-03-30T15:07:50;13.20;;;2.90;;
15354;SDS011;7777;52.254;9.618;2023-03-30T15:10:24;9.73;;;2.40;;
15354;SDS011;7777;52.254;9.618;2023-03-30T15:12:57;10.47;;;2.60;;
15354;SDS011;7777;52.254;9.618;2023-03-30T15:15:25;12.57;;;2.53;;
15354;SDS011;7777;52.254;9.618;2023-03-30T15:17:56;10.53;;;2.53;;
15354;SDS011;7777;52.254;9.618;2023-03-30T15:20:24;9.10;;;2.33;;
15354;SDS011;7777;52.254;9.618;2023-03-30T15:22:52;6.03;;;1.43;;
15354;SDS011;7777;52.254;9.618;2023-03-30T15:25:40;6.03;;;1.50;;
15354;SDS011;7777;52.254;9.618;2023-03-30T15:28:10;5.93;;;1.60;;
15354;SDS011;7777;52.254;9.618;2023-03-30T15:30:49;7.37;;;1.87;;
15354;SDS011;7777;52.254;9.618;2023-03-30T15:33:24;6.80;;;1.70;;
15354;SDS011;7777;52.254;9.618;2023-03-30T15:36:05;5.40;;;2.20;;
15354;SDS011;7777;52.254;9.618;2023-03-30T15:38:58;6.20;;;1.70;;
15354;SDS011;7777;52.254;9.618;2023-03-30T15:41:43;5.67;;;1.40;;
15354;SDS011;7777;52.254;9.618;2023-03-30T15:44:19;6.63;;;1.30;;
15354;SDS011;7777;52.254;9.618;2023-03-30T15:46:50;7.43;;;1.50;;
15354;SDS011;7777;52.254;9.618;2023-03-30T15:49:21;5.43;;;1.40;;
15354;SDS011;7777;52.254;9.618;2023-03-30T15:52:07;8.33;;;1.80;;
15354;SDS011;7777;52.254;9.618;2023-03-30T15:54:42;5.73;;;1.93;;
15354;SDS011;7777;52.254;9.618;2023-03-30T15:57:18;6.47;;;2.07;;
15354;SDS011;7777;52.254;9.618;2023-03-30T15:59:56;10.97;;;2.67;;
15354;SDS011;7777;52.254;9.618;2023-03-30T16:02:38;12.97;;;2.87;;
15354;SDS011;7777;52.254;9.618;2023-03-30T16:05:16;8.63;;;2.53;;
15354;SDS011;7777;52.254;9.618;2023-03-30T16:07:45;7.27;;;2.13;;
15354;SDS011;7777;52.254;9.618;2023-03-30T16:10:15;6.87;;;2.03;;
15354;SDS011;7777;52.254;9.618;2023-03-30T16:12:48;8.50;;;1.93;;
15354;SDS011;7777;52.254;9.618;2023-03-30T16:15:16;6.37;;;1.80;;
15354;SDS011;7777;52.254;9.618;2023-03-30T16:17:45;8.13;;;1.77;;
15354;SDS011;7777;52.254;9.618;2023-03-30T16:20:15;5.17;;;1.70;;
15354;SDS011;7777;52.254;9.618;2023-03-30T16:22:46;9.83;;;1.90;;
15354;SDS011;7777;52.254;9.618;2023-03-30T16:25:12;6.20;;;1.80;;
15354;SDS011;7777;52.254;9.618;2023-03-30T16:27:40;9.10;;;1.97;;
15354;SDS011;7777;52.254;9.618;2023-03-30T16:33:02;6.57;;;2.17;;
15354;SDS011;7777;52.254;9.618;2023-03-30T16:35:29;3.67;;;1.33;;
15354;SDS011;7777;52.254;9.618;2023-03-30T16:37:55;4.07;;;1.80;;
15354;SDS011;7777;52.254;9.618;2023-03-30T16:40:31;7.27;;;1.90;;
15354;SDS011;7777;52.254;9.618;2023-03-30T16:43:03;7.50;;;1.73;;
15354;SDS011;7777;52.254;9.618;2023-03-30T16:45:33;7.53;;;1.83;;
15354;SDS011;7777;52.254;9.618;2023-03-30T16:47:59;6.53;;;1.90;;
15354;SDS011;7777;52.254;9.618;2023-03-30T16:50:38;4.57;;;1.37;;
15354;SDS011;7777;52.254;9.618;2023-03-30T16:55:43;8.10;;;2.07;;
15354;SDS011;7777;52.254;9.618;2023-03-30T16:58:10;4.13;;;1.43;;
15354;SDS011;7777;52.254;9.618;2023-03-30T17:00:43;5.80;;;1.73;;
15354;SDS011;7777;52.254;9.618;2023-03-30T17:03:11;5.57;;;1.47;;
15354;SDS011;7777;52.254;9.618;2023-03-30T17:05:38;6.20;;;1.80;;
15354;SDS011;7777;52.254;9.618;2023-03-30T17:08:05;8.13;;;1.63;;
15354;SDS011;7777;52.254;9.618;2023-03-30T17:10:42;5.47;;;1.47;;
15354;SDS011;7777;52.254;9.618;2023-03-30T17:13:07;5.20;;;1.00;;
15354;SDS011;7777;52.254;9.618;2023-03-30T17:15:33;5.77;;;1.80;;
15354;SDS011;7777;52.254;9.618;2023-03-30T17:18:02;3.70;;;1.57;;
15354;SDS011;7777;52.254;9.618;2023-03-30T17:23:26;6.47;;;1.83;;
15354;SDS011;7777;52.254;9.618;2023-03-30T17:25:56;9.97;;;1.80;;
15354;SDS011;7777;52.254;9.618;2023-03-30T17:28:27;7.60;;;2.30;;
15354;SDS011;7777;52.254;9.618;2023-03-30T17:30:59;5.93;;;2.40;;
15354;SDS011;7777;52.254;9.618;2023-03-30T17:33:29;7.77;;;2.50;;
15354;SDS011;7777;52.254;9.618;2023-03-30T17:35:56;6.67;;;2.53;;
15354;SDS011;7777;52.254;9.618;2023-03-30T17:38:26;7.33;;;2.03;;
15354;SDS011;7777;52.254;9.618;2023-03-30T17:40:53;6.40;;;2.00;;
15354;SDS011;7777;52.254;9.618;2023-03-30T17:43:20;9.30;;;2.70;;
15354;SDS011;7777;52.254;9.618;2023-03-30T17:45:46;6.63;;;2.60;;
15354;SDS011;7777;52.254;9.618;2023-03-30T17:48:13;6.97;;;2.27;;
15354;SDS011;7777;52.254;9.618;2023-03-30T17:50:42;6.50;;;2.23;;
15354;SDS011;7777;52.254;9.618;2023-03-30T17:53:14;6.63;;;2.07;;
15354;SDS011;7777;52.254;9.618;2023-03-30T17:55:46;12.27;;;2.70;;
15354;SDS011;7777;52.254;9.618;2023-03-30T17:58:18;10.50;;;2.43;;
15354;SDS011;7777;52.254;9.618;2023-03-30T18:00:48;13.30;;;2.53;;
15354;SDS011;7777;52.254;9.618;2023-03-30T18:03:16;10.20;;;3.00;;
15354;SDS011;7777;52.254;9.618;2023-03-30T18:05:44;7.77;;;3.03;;
15354;SDS011;7777;52.254;9.618;2023-03-30T18:08:28;13.27;;;3.37;;
15354;SDS011;7777;52.254;9.618;2023-03-30T18:10:55;8.53;;;2.40;;
15354;SDS011;7777;52.254;9.618;2023-03-30T18:13:23;9.87;;;2.67;;
15354;SDS011;7777;52.254;9.618;2023-03-30T18:15:51;11.67;;;3.33;;
15354;SDS011;7777;52.254;9.618;2023-03-30T18:18:20;12.73;;;2.87;;